createdAt,value
2022-11-24T00:01:08.865Z,6.80
2022-11-24T00:03:35.941Z,6.80
2022-11-24T00:06:08.945Z,6.70
2022-11-24T00:08:36.887Z,6.80
2022-11-24T00:11:08.778Z,6.80
2022-11-24T00:13:36.246Z,6.70
2022-11-24T00:16:19.994Z,6.70
2022-11-24T00:18:49.205Z,6.70
2022-11-24T00:21:18.250Z,6.70
2022-11-24T00:23:47.976Z,6.70
2022-11-24T00:26:16.034Z,6.70
2022-11-24T00:28:44.267Z,6.70
2022-11-24T00:31:22.589Z,6.70
2022-11-24T00:33:51.823Z,6.70
2022-11-24T00:36:20.500Z,6.70
2022-11-24T00:38:47.757Z,6.80
2022-11-24T00:41:14.906Z,6.70
2022-11-24T00:43:41.813Z,6.80
2022-11-24T00:46:08.993Z,6.70
2022-11-24T00:48:35.945Z,6.70
2022-11-24T00:51:06.531Z,6.70
2022-11-24T00:53:34.224Z,6.70
2022-11-24T00:56:01.479Z,6.70
2022-11-24T00:58:28.330Z,6.70
2022-11-24T01:00:56.269Z,6.70
2022-11-24T01:03:23.231Z,6.70
2022-11-24T01:05:50.139Z,6.70
2022-11-24T01:08:17.299Z,6.70
2022-11-24T01:10:44.355Z,6.70
2022-11-24T01:13:12.635Z,6.70
2022-11-24T01:15:40.208Z,6.70
2022-11-24T01:18:07.102Z,6.70
2022-11-24T01:20:34.023Z,6.70
2022-11-24T01:23:00.887Z,6.70
2022-11-24T01:25:27.819Z,6.70
2022-11-24T01:27:54.690Z,6.70
2022-11-24T01:30:23.176Z,6.70
2022-11-24T01:32:50.079Z,6.70
2022-11-24T01:35:16.935Z,6.70
2022-11-24T01:37:43.803Z,6.70
2022-11-24T01:40:11.278Z,6.70
2022-11-24T01:42:51.032Z,6.70
2022-11-24T01:45:36.269Z,6.70
2022-11-24T01:48:06.904Z,6.70
2022-11-24T01:50:35.787Z,6.60
2022-11-24T01:53:03.103Z,6.60
2022-11-24T01:55:34.675Z,6.60
2022-11-24T01:58:11.835Z,6.60
2022-11-24T02:00:43.424Z,6.70
2022-11-24T02:03:14.603Z,6.70
2022-11-24T02:06:05.070Z,6.70
2022-11-24T02:09:08.373Z,6.70
2022-11-24T02:11:37.959Z,6.70
2022-11-24T02:14:07.310Z,6.60
2022-11-24T02:16:37.877Z,6.60
2022-11-24T02:19:14.625Z,6.60
2022-11-24T02:21:41.489Z,6.60
2022-11-24T02:24:25.377Z,6.70
2022-11-24T02:26:52.580Z,6.60
2022-11-24T02:29:23.046Z,6.60
2022-11-24T02:31:57.242Z,6.60
2022-11-24T02:34:24.082Z,6.60
2022-11-24T02:36:50.924Z,6.60
2022-11-24T02:39:17.848Z,6.60
2022-11-24T02:42:00.709Z,6.60
2022-11-24T02:44:32.042Z,6.60
2022-11-24T02:47:08.409Z,6.60
2022-11-24T02:49:35.539Z,6.60
2022-11-24T02:52:03.108Z,6.60
2022-11-24T02:54:29.999Z,6.60
2022-11-24T02:56:57.182Z,6.60
2022-11-24T02:59:24.330Z,6.60
2022-11-24T03:01:51.219Z,6.60
2022-11-24T03:04:18.222Z,6.60
2022-11-24T03:06:45.147Z,6.60
2022-11-24T03:09:12.082Z,6.60
2022-11-24T03:11:39.406Z,6.60
2022-11-24T03:14:06.442Z,6.60
2022-11-24T03:16:33.943Z,6.60
2022-11-24T03:19:01.294Z,6.60
2022-11-24T03:21:28.399Z,6.60
2022-11-24T03:23:55.746Z,6.50
2022-11-24T03:26:24.335Z,6.50
2022-11-24T03:28:54.400Z,6.50
2022-11-24T03:31:21.508Z,6.40
2022-11-24T03:33:48.495Z,6.40
2022-11-24T03:36:15.556Z,6.40
2022-11-24T03:38:42.658Z,6.30
2022-11-24T03:41:09.624Z,6.30
2022-11-24T03:43:41.997Z,6.40
2022-11-24T03:46:10.988Z,6.40
2022-11-24T03:48:37.861Z,6.30
2022-11-24T03:51:04.918Z,6.30
2022-11-24T03:53:33.787Z,6.30
2022-11-24T03:56:02.206Z,6.30
2022-11-24T03:58:29.399Z,6.30
2022-11-24T04:00:56.672Z,6.30
2022-11-24T04:03:24.408Z,6.20
2022-11-24T04:05:51.555Z,6.20
2022-11-24T04:08:19.246Z,6.20
2022-11-24T04:10:50.830Z,6.20
2022-11-24T04:13:19.703Z,6.10
2022-11-24T04:15:46.679Z,6.10
2022-11-24T04:18:14.171Z,6.10
2022-11-24T04:20:42.295Z,6.10
2022-11-24T04:23:10.629Z,6.10
2022-11-24T04:25:37.963Z,6.10
2022-11-24T04:28:05.069Z,6.10
2022-11-24T04:30:32.014Z,6.10
2022-11-24T04:32:59.048Z,6.10
2022-11-24T04:35:25.906Z,6.10
2022-11-24T04:37:52.780Z,6.00
2022-11-24T04:40:20.099Z,6.00
2022-11-24T04:42:55.093Z,6.00
2022-11-24T04:45:22.727Z,6.10
2022-11-24T04:47:49.653Z,6.00
2022-11-24T04:50:16.816Z,6.00
2022-11-24T04:52:43.744Z,6.00
2022-11-24T04:55:11.303Z,6.00
2022-11-24T04:57:38.516Z,6.00
2022-11-24T05:00:06.699Z,6.00
2022-11-24T05:02:33.557Z,6.00
2022-11-24T05:05:00.409Z,6.00
2022-11-24T05:07:27.446Z,6.00
2022-11-24T05:10:12.695Z,6.00
2022-11-24T05:12:39.642Z,6.00
2022-11-24T05:15:07.625Z,6.00
2022-11-24T05:17:36.656Z,5.90
2022-11-24T05:20:04.928Z,5.90
2022-11-24T05:22:31.965Z,5.80
2022-11-24T05:24:58.959Z,5.80
2022-11-24T05:27:25.898Z,5.80
2022-11-24T05:29:52.739Z,5.80
2022-11-24T05:32:19.805Z,5.80
2022-11-24T05:34:46.676Z,5.80
2022-11-24T05:37:13.585Z,5.80
2022-11-24T05:39:43.182Z,5.70
2022-11-24T05:42:28.433Z,5.80
2022-11-24T05:44:55.323Z,5.70
2022-11-24T05:47:22.163Z,5.80
2022-11-24T05:49:49.045Z,5.70
2022-11-24T05:52:16.696Z,5.70
2022-11-24T05:54:43.700Z,5.70
2022-11-24T05:57:10.502Z,5.70
2022-11-24T05:59:37.454Z,5.70
2022-11-24T06:02:04.620Z,5.70
2022-11-24T06:04:32.495Z,5.70
2022-11-24T06:06:59.741Z,5.70
2022-11-24T06:09:27.029Z,5.70
2022-11-24T06:11:53.910Z,5.80
2022-11-24T06:14:20.758Z,5.70
2022-11-24T06:16:47.657Z,5.80
2022-11-24T06:19:15.043Z,5.80
2022-11-24T06:21:42.553Z,5.80
2022-11-24T06:24:09.407Z,5.80
2022-11-24T06:26:36.213Z,5.80
2022-11-24T06:29:03.279Z,5.80
2022-11-24T06:31:30.145Z,5.80
2022-11-24T06:33:57.035Z,5.90
2022-11-24T06:36:23.855Z,5.90
2022-11-24T06:38:50.675Z,5.90
2022-11-24T06:41:18.285Z,5.90
2022-11-24T06:43:45.886Z,5.90
2022-11-24T06:46:13.524Z,5.90
2022-11-24T06:48:40.392Z,5.90
2022-11-24T06:51:09.353Z,6.00
2022-11-24T06:53:38.368Z,6.00
2022-11-24T06:56:15.852Z,6.00
2022-11-24T06:58:45.276Z,6.00
2022-11-24T07:01:16.675Z,6.00
2022-11-24T07:03:43.864Z,6.10
2022-11-24T07:06:10.942Z,6.10
2022-11-24T07:08:37.767Z,6.10
2022-11-24T07:11:06.242Z,6.10
2022-11-24T07:13:33.276Z,6.10
2022-11-24T07:16:01.157Z,6.10
2022-11-24T07:18:28.012Z,6.10
2022-11-24T07:20:54.797Z,6.10
2022-11-24T07:23:21.612Z,6.20
2022-11-24T07:25:48.489Z,6.20
2022-11-24T07:28:15.489Z,6.20
2022-11-24T07:30:42.288Z,6.20
2022-11-24T07:33:09.113Z,6.20
2022-11-24T07:35:35.927Z,6.20
2022-11-24T07:38:02.777Z,6.20
2022-11-24T07:40:29.631Z,6.20
2022-11-24T07:42:56.436Z,6.20
2022-11-24T07:45:23.296Z,6.20
2022-11-24T07:47:50.204Z,6.20
2022-11-24T07:50:17.430Z,6.20
2022-11-24T07:52:44.319Z,6.20
2022-11-24T07:55:11.365Z,6.20
2022-11-24T07:57:38.228Z,6.30
2022-11-24T08:00:06.142Z,6.30
2022-11-24T08:02:33.947Z,6.30
2022-11-24T08:05:00.801Z,6.40
2022-11-24T08:07:27.621Z,6.40
2022-11-24T08:09:54.529Z,6.40
2022-11-24T08:12:21.896Z,6.40
2022-11-24T08:14:51.789Z,6.40
2022-11-24T08:17:18.831Z,6.50
2022-11-24T08:19:45.834Z,6.50
2022-11-24T08:22:12.741Z,6.50
2022-11-24T08:24:46.150Z,6.50
2022-11-24T08:27:14.114Z,6.60
2022-11-24T08:29:41.113Z,6.60
2022-11-24T08:32:08.601Z,6.60
2022-11-24T08:34:36.101Z,6.60
2022-11-24T08:37:06.805Z,6.60
2022-11-24T08:39:34.186Z,6.70
2022-11-24T08:42:01.077Z,6.70
2022-11-24T08:44:28.849Z,6.80
2022-11-24T08:46:56.022Z,6.80
2022-11-24T08:49:23.016Z,6.80
2022-11-24T08:51:51.387Z,6.90
2022-11-24T08:54:21.736Z,7.00
2022-11-24T08:56:49.436Z,7.00
2022-11-24T08:59:16.489Z,7.00
2022-11-24T09:01:43.500Z,7.00
2022-11-24T09:04:10.469Z,7.00
2022-11-24T09:06:37.321Z,7.10
2022-11-24T09:09:04.174Z,7.10
2022-11-24T09:11:33.162Z,7.30
2022-11-24T09:14:00.030Z,7.20
2022-11-24T09:16:29.164Z,7.20
2022-11-24T09:19:06.312Z,7.20
2022-11-24T09:21:39.982Z,7.20
2022-11-24T09:24:07.797Z,7.20
2022-11-24T09:26:37.016Z,7.20
2022-11-24T09:29:06.398Z,7.30
2022-11-24T09:31:35.285Z,7.30
2022-11-24T09:34:13.563Z,7.30
2022-11-24T09:36:40.550Z,7.30
2022-11-24T09:39:07.958Z,7.30
2022-11-24T09:41:43.912Z,7.30
2022-11-24T09:44:29.550Z,7.30
2022-11-24T09:47:17.216Z,7.30
2022-11-24T09:49:51.526Z,7.40
2022-11-24T09:52:33.242Z,7.50
2022-11-24T09:55:02.585Z,7.60
2022-11-24T09:57:37.545Z,7.70
2022-11-24T10:00:14.071Z,7.90
2022-11-24T10:02:40.898Z,8.00
2022-11-24T10:05:08.152Z,8.00
2022-11-24T10:07:45.507Z,8.10
2022-11-24T10:10:24.215Z,8.10
2022-11-24T10:13:41.277Z,8.20
2022-11-24T10:16:41.840Z,8.30
2022-11-24T10:19:39.468Z,8.40
2022-11-24T10:22:09.172Z,8.50
2022-11-24T10:25:03.564Z,8.40
2022-11-24T10:28:01.000Z,8.50
2022-11-24T10:30:28.102Z,8.40
2022-11-24T10:33:04.946Z,8.40
2022-11-24T10:35:39.981Z,8.40
2022-11-24T10:38:21.813Z,8.40
2022-11-24T10:40:57.400Z,8.30
2022-11-24T10:43:28.971Z,8.30
2022-11-24T10:46:05.548Z,8.30
2022-11-24T10:48:41.506Z,8.20
2022-11-24T10:51:27.129Z,8.30
2022-11-24T10:54:01.210Z,8.20
2022-11-24T10:56:38.348Z,8.20
2022-11-24T10:59:25.405Z,8.20
2022-11-24T11:01:53.257Z,8.20
2022-11-24T11:04:25.258Z,8.20
2022-11-24T11:06:52.347Z,8.20
2022-11-24T11:09:21.954Z,8.20
2022-11-24T11:11:49.490Z,8.20
2022-11-24T11:14:31.772Z,8.20
2022-11-24T11:16:59.010Z,8.20
2022-11-24T11:19:48.289Z,8.30
2022-11-24T11:22:18.334Z,8.20
2022-11-24T11:24:47.520Z,8.30
2022-11-24T11:27:20.018Z,8.20
2022-11-24T11:35:27.033Z,8.30
2022-11-24T11:37:58.654Z,8.30
2022-11-24T11:40:31.595Z,8.40
2022-11-24T11:43:28.875Z,8.50
2022-11-24T11:46:07.893Z,8.50
2022-11-24T11:48:43.095Z,8.60
2022-11-24T11:51:25.887Z,8.70
2022-11-24T11:54:25.163Z,8.70
2022-11-24T11:57:10.509Z,8.70
2022-11-24T11:59:49.193Z,8.70
2022-11-24T12:02:53.696Z,8.70
2022-11-24T12:05:48.621Z,8.70
2022-11-24T12:08:24.550Z,8.70
2022-11-24T12:11:06.144Z,8.70
2022-11-24T12:13:49.220Z,8.80
2022-11-24T12:16:16.404Z,8.70
2022-11-24T12:18:57.952Z,8.70
2022-11-24T12:21:40.652Z,8.70
2022-11-24T12:24:23.970Z,8.80
2022-11-24T12:27:07.964Z,8.80
2022-11-24T12:29:58.779Z,8.80
2022-11-24T12:33:03.130Z,8.80
2022-11-24T12:35:37.580Z,8.90
2022-11-24T12:38:21.889Z,8.90
2022-11-24T12:41:25.435Z,8.80
2022-11-24T12:43:55.055Z,8.80
2022-11-24T12:46:40.375Z,8.80
2022-11-24T12:49:16.059Z,8.90
2022-11-24T12:51:47.569Z,8.80
2022-11-24T12:54:17.764Z,8.80
2022-11-24T12:57:39.504Z,8.80
2022-11-24T13:00:16.694Z,8.80
2022-11-24T13:03:14.786Z,8.80
2022-11-24T13:06:00.062Z,8.80
2022-11-24T13:08:29.672Z,8.80
2022-11-24T13:11:22.384Z,8.80
2022-11-24T13:14:02.736Z,8.70
2022-11-24T13:16:48.250Z,8.60
2022-11-24T13:19:20.080Z,8.50
2022-11-24T13:22:01.155Z,8.40
2022-11-24T13:24:31.117Z,8.30
2022-11-24T13:27:19.808Z,8.20
2022-11-24T13:29:48.638Z,8.20
2022-11-24T13:32:15.400Z,8.10
2022-11-24T13:34:49.985Z,8.10
2022-11-24T13:37:31.652Z,8.10
2022-11-24T13:40:12.096Z,8.10
2022-11-24T13:43:02.966Z,8.10
2022-11-24T13:45:41.894Z,8.10
2022-11-24T13:48:21.442Z,8.20
2022-11-24T13:50:54.857Z,8.20
2022-11-24T13:53:45.736Z,8.20
2022-11-24T13:56:12.514Z,8.20
2022-11-24T13:58:46.618Z,8.10
2022-11-24T14:01:16.427Z,8.10
2022-11-24T14:04:21.507Z,8.10
2022-11-24T14:07:01.122Z,8.10
2022-11-24T14:09:37.341Z,8.10
2022-11-24T14:12:17.654Z,8.10
2022-11-24T14:14:52.648Z,8.00
2022-11-24T14:17:28.634Z,8.00
2022-11-24T14:19:57.813Z,8.00
2022-11-24T14:22:40.439Z,8.00
2022-11-24T14:25:30.167Z,7.90
2022-11-24T14:27:57.598Z,7.90
2022-11-24T14:30:26.074Z,7.90
2022-11-24T14:33:02.630Z,7.90
2022-11-24T14:35:35.638Z,7.90
2022-11-24T14:38:05.071Z,7.90
2022-11-24T14:40:55.627Z,7.90
2022-11-24T14:43:32.828Z,7.90
2022-11-24T14:46:01.328Z,7.90
2022-11-24T14:48:35.921Z,7.90
2022-11-24T14:51:16.240Z,7.80
2022-11-24T14:53:45.045Z,7.80
2022-11-24T14:56:23.950Z,7.90
2022-11-24T14:58:51.193Z,7.80
2022-11-24T15:01:20.876Z,7.80
2022-11-24T15:04:26.554Z,7.80
2022-11-24T15:07:27.746Z,7.80
2022-11-24T15:09:59.917Z,7.80
2022-11-24T15:12:40.832Z,7.80
2022-11-24T15:15:22.080Z,7.80
2022-11-24T15:17:57.485Z,7.80
2022-11-24T15:20:30.328Z,7.70
2022-11-24T15:23:28.421Z,7.70
2022-11-24T15:25:56.854Z,7.70
2022-11-24T15:28:26.136Z,7.70
2022-11-24T15:30:54.815Z,7.70
2022-11-24T15:33:23.188Z,7.70
2022-11-24T15:35:50.622Z,7.70
2022-11-24T15:38:19.293Z,7.60
2022-11-24T15:40:48.367Z,7.60
2022-11-24T15:43:30.256Z,7.60
2022-11-24T15:45:59.781Z,7.60
2022-11-24T15:48:27.561Z,7.60
2022-11-24T15:50:56.519Z,7.60
2022-11-24T15:53:30.461Z,7.60
2022-11-24T15:55:58.689Z,7.60
2022-11-24T15:58:25.775Z,7.50
2022-11-24T16:00:53.811Z,7.50
2022-11-24T16:06:16.730Z,7.40
2022-11-24T16:08:46.394Z,7.40
2022-11-24T16:11:13.460Z,7.40
2022-11-24T16:13:40.541Z,7.40
2022-11-24T16:16:07.788Z,7.30
2022-11-24T16:18:39.321Z,7.20
2022-11-24T16:21:07.418Z,7.20
2022-11-24T16:23:35.715Z,7.10
2022-11-24T16:26:05.948Z,7.10
2022-11-24T16:28:33.203Z,7.10
2022-11-24T16:31:00.116Z,7.00
2022-11-24T16:33:29.358Z,7.00
2022-11-24T16:35:56.241Z,6.90
2022-11-24T16:38:23.193Z,6.90
2022-11-24T16:40:54.715Z,6.90
2022-11-24T16:43:21.829Z,6.90
2022-11-24T16:46:17.351Z,6.90
2022-11-24T16:48:45.920Z,6.80
2022-11-24T16:51:13.698Z,6.80
2022-11-24T16:53:41.006Z,6.80
2022-11-24T16:56:08.222Z,6.80
2022-11-24T16:58:40.511Z,6.70
2022-11-24T17:01:12.452Z,6.70
2022-11-24T17:03:41.275Z,6.70
2022-11-24T17:06:12.832Z,6.70
2022-11-24T17:08:41.341Z,6.70
2022-11-24T17:11:14.699Z,6.60
2022-11-24T17:13:42.798Z,6.60
2022-11-24T17:16:12.381Z,6.60
2022-11-24T17:18:39.965Z,6.60
2022-11-24T17:21:10.231Z,6.60
2022-11-24T17:23:38.481Z,6.50
2022-11-24T17:26:08.012Z,6.50
2022-11-24T17:28:36.140Z,6.50
2022-11-24T17:31:10.765Z,6.50
2022-11-24T17:33:37.710Z,6.40
2022-11-24T17:36:06.268Z,6.40
2022-11-24T17:38:33.445Z,6.40
2022-11-24T17:41:00.702Z,6.30
2022-11-24T17:43:28.252Z,6.40
2022-11-24T17:45:57.364Z,6.30
2022-11-24T17:48:24.800Z,6.20
2022-11-24T17:51:03.836Z,6.20
2022-11-24T17:53:32.424Z,6.20
2022-11-24T17:56:01.285Z,6.20
2022-11-24T17:58:29.448Z,6.10
2022-11-24T18:00:57.624Z,6.10
2022-11-24T18:03:34.894Z,6.10
2022-11-24T18:06:06.264Z,6.10
2022-11-24T18:08:38.248Z,6.00
2022-11-24T18:11:07.872Z,6.00
2022-11-24T18:13:55.573Z,6.00
2022-11-24T18:16:22.810Z,6.00
2022-11-24T18:19:07.352Z,6.00
2022-11-24T18:21:35.279Z,6.00
2022-11-24T18:24:02.569Z,6.00
2022-11-24T18:26:30.332Z,5.90
2022-11-24T18:28:57.277Z,5.90
2022-11-24T18:31:24.201Z,5.90
2022-11-24T18:33:51.020Z,5.80
2022-11-24T18:36:24.611Z,5.80
2022-11-24T18:38:55.847Z,5.80
2022-11-24T18:41:22.746Z,5.80
2022-11-24T18:43:49.944Z,5.80
2022-11-24T18:46:19.035Z,5.80
2022-11-24T18:48:46.628Z,5.80
2022-11-24T18:51:16.626Z,5.70
2022-11-24T18:53:45.658Z,5.70
2022-11-24T18:56:17.580Z,5.70
2022-11-24T18:58:45.513Z,5.70
2022-11-24T19:01:19.102Z,5.70
2022-11-24T19:03:49.435Z,5.70
2022-11-24T19:06:30.352Z,5.70
2022-11-24T19:08:58.907Z,5.70
2022-11-24T19:11:32.579Z,5.60
2022-11-24T19:14:01.162Z,5.60
2022-11-24T19:16:28.572Z,5.60
2022-11-24T19:19:00.491Z,5.60
2022-11-24T19:21:29.016Z,5.60
2022-11-24T19:24:01.239Z,5.60
2022-11-24T19:26:30.611Z,5.60
2022-11-24T19:28:57.919Z,5.50
2022-11-24T19:31:25.270Z,5.50
2022-11-24T19:33:54.720Z,5.50
2022-11-24T19:36:23.044Z,5.40
2022-11-24T19:38:55.767Z,5.40
2022-11-24T19:41:27.280Z,5.40
2022-11-24T19:43:55.195Z,5.40
2022-11-24T19:46:26.673Z,5.40
2022-11-24T19:48:57.722Z,5.40
2022-11-24T19:51:29.970Z,5.40
2022-11-24T19:53:57.661Z,5.40
2022-11-24T19:56:29.189Z,5.40
2022-11-24T19:58:56.974Z,5.30
2022-11-24T20:01:30.124Z,5.30
2022-11-24T20:04:04.503Z,5.30
2022-11-24T20:06:37.815Z,5.30
2022-11-24T20:09:08.178Z,5.30
2022-11-24T20:11:37.181Z,5.30
2022-11-24T20:14:05.026Z,5.30
2022-11-24T20:16:34.435Z,5.20
2022-11-24T20:19:08.918Z,5.30
2022-11-24T20:21:38.233Z,5.20
2022-11-24T20:24:08.568Z,5.20
2022-11-24T20:26:39.015Z,5.20
2022-11-24T20:29:07.339Z,5.20
2022-11-24T20:31:37.632Z,5.10
2022-11-24T20:34:06.529Z,5.10
2022-11-24T20:36:39.862Z,5.10
2022-11-24T20:39:12.362Z,5.10
2022-11-24T20:41:40.250Z,5.10
2022-11-24T20:44:11.240Z,5.10
2022-11-24T20:46:40.458Z,5.10
2022-11-24T20:49:09.040Z,5.10
2022-11-24T20:51:40.155Z,5.00
2022-11-24T20:54:09.553Z,5.00
2022-11-24T20:56:42.618Z,5.00
2022-11-24T20:59:14.097Z,5.00
2022-11-24T21:01:43.938Z,5.00
2022-11-24T21:04:14.512Z,5.00
2022-11-24T21:06:41.787Z,5.00
2022-11-24T21:09:09.998Z,5.00
2022-11-24T21:11:38.729Z,5.00
2022-11-24T21:14:10.020Z,5.00
2022-11-24T21:16:39.393Z,5.00
2022-11-24T21:19:11.388Z,5.00
2022-11-24T21:21:39.740Z,5.00
2022-11-24T21:24:12.635Z,5.00
2022-11-24T21:26:40.268Z,5.00
2022-11-24T21:29:08.345Z,5.00
2022-11-24T21:31:37.140Z,5.00
2022-11-24T21:34:05.392Z,5.10
2022-11-24T21:36:34.280Z,5.10
2022-11-24T21:39:02.239Z,5.20
2022-11-24T21:41:32.580Z,5.20
2022-11-24T21:43:59.552Z,5.20
2022-11-24T21:46:28.110Z,5.20
2022-11-24T21:48:54.943Z,5.10
2022-11-24T21:51:21.892Z,5.10
2022-11-24T21:53:48.829Z,5.10
2022-11-24T21:56:21.168Z,5.10
2022-11-24T21:58:53.800Z,5.10
2022-11-24T22:01:22.964Z,5.10
2022-11-24T22:03:49.973Z,5.10
2022-11-24T22:06:19.203Z,5.10
2022-11-24T22:08:47.589Z,5.10
2022-11-24T22:11:17.233Z,5.10
2022-11-24T22:13:44.694Z,5.00
2022-11-24T22:16:19.776Z,5.00
2022-11-24T22:18:47.305Z,5.00
2022-11-24T22:21:16.336Z,5.00
2022-11-24T22:23:43.242Z,5.00
2022-11-24T22:26:21.351Z,5.00
2022-11-24T22:28:48.471Z,4.90
2022-11-24T22:31:21.116Z,4.90
2022-11-24T22:33:49.530Z,4.90
2022-11-24T22:36:17.856Z,4.90
2022-11-24T22:38:44.728Z,4.90
2022-11-24T22:41:14.047Z,4.90
2022-11-24T22:43:42.189Z,4.90
2022-11-24T22:46:14.011Z,4.90
2022-11-24T22:48:41.700Z,4.90
2022-11-24T22:51:19.943Z,4.90
2022-11-24T22:53:48.720Z,4.90
2022-11-24T22:56:15.946Z,4.90
2022-11-24T22:58:43.384Z,4.90
2022-11-24T23:01:16.310Z,4.90
2022-11-24T23:03:43.608Z,4.90
2022-11-24T23:06:13.627Z,4.90
2022-11-24T23:08:40.534Z,4.90
2022-11-24T23:11:11.004Z,4.90
2022-11-24T23:13:38.163Z,4.90
2022-11-24T23:16:11.470Z,4.90
2022-11-24T23:18:39.216Z,4.90
2022-11-24T23:21:14.093Z,4.90
2022-11-24T23:23:41.460Z,5.00
2022-11-24T23:26:13.421Z,4.90
2022-11-24T23:28:40.699Z,4.90
2022-11-24T23:31:10.278Z,4.90
2022-11-24T23:33:37.669Z,4.90
2022-11-24T23:36:15.121Z,5.00
2022-11-24T23:38:42.890Z,4.90
2022-11-24T23:41:22.827Z,4.90
2022-11-24T23:43:49.941Z,4.90
2022-11-24T23:46:20.590Z,5.00
2022-11-24T23:48:48.172Z,5.00
2022-11-24T23:51:20.230Z,4.90
2022-11-24T23:53:47.726Z,4.90
2022-11-24T23:56:20.329Z,5.00
2022-11-24T23:58:47.796Z,5.00
